sensor_id;sensor_type;location;lat;lon;timestamp;P1;durP1;ratioP1;P2;durP2;ratioP2
26530;SDS011;14201;43.188;24.160;2023-03-24T05:45:09;11.70;;;6.97;;
26530;SDS011;14201;43.188;24.160;2023-03-24T05:47:36;11.30;;;6.38;;
26530;SDS011;14201;43.188;24.160;2023-03-24T05:50:02;13.75;;;7.05;;
26530;SDS011;14201;43.188;24.160;2023-03-24T07:27:38;6.30;;;4.78;;
26530;SDS011;14201;43.188;24.160;2023-03-24T07:30:05;7.35;;;3.95;;
26530;SDS011;14201;43.188;24.160;2023-03-24T07:56:56;9.57;;;4.75;;
26530;SDS011;14201;43.188;24.160;2023-03-24T07:59:22;6.43;;;4.13;;
26530;SDS011;14201;43.188;24.160;2023-03-24T08:01:48;5.32;;;3.97;;
26530;SDS011;14201;43.188;24.160;2023-03-24T08:04:16;5.10;;;4.10;;
26530;SDS011;14201;43.188;24.160;2023-03-24T08:06:42;6.45;;;4.13;;
26530;SDS011;14201;43.188;24.160;2023-03-24T08:09:08;6.63;;;4.07;;
26530;SDS011;14201;43.188;24.160;2023-03-24T08:11:35;4.80;;;3.90;;
26530;SDS011;14201;43.188;24.160;2023-03-24T08:14:01;6.90;;;3.92;;
26530;SDS011;14201;43.188;24.160;2023-03-24T08:16:28;5.00;;;3.85;;
26530;SDS011;14201;43.188;24.160;2023-03-24T08:18:53;9.20;;;3.85;;
26530;SDS011;14201;43.188;24.160;2023-03-24T08:57:57;3.58;;;2.88;;
26530;SDS011;14201;43.188;24.160;2023-03-24T09:34:30;4.78;;;3.67;;
26530;SDS011;14201;43.188;24.160;2023-03-24T10:51:44;2.50;;;1.80;;
26530;SDS011;14201;43.188;24.160;2023-03-24T11:09:39;4.45;;;2.38;;
26530;SDS011;14201;43.188;24.160;2023-03-24T11:12:22;2.55;;;2.08;;
26530;SDS011;14201;43.188;24.160;2023-03-24T11:19:54;2.63;;;1.90;;
26530;SDS011;14201;43.188;24.160;2023-03-24T11:22:21;5.40;;;1.98;;
26530;SDS011;14201;43.188;24.160;2023-03-24T11:44:46;2.88;;;1.90;;
26530;SDS011;14201;43.188;24.160;2023-03-24T11:47:21;2.88;;;2.10;;
26530;SDS011;14201;43.188;24.160;2023-03-24T11:49:56;2.08;;;1.70;;
26530;SDS011;14201;43.188;24.160;2023-03-24T11:52:35;2.67;;;2.05;;
26530;SDS011;14201;43.188;24.160;2023-03-24T11:55:17;3.70;;;1.77;;
26530;SDS011;14201;43.188;24.160;2023-03-24T12:01:03;3.53;;;2.03;;
26530;SDS011;14201;43.188;24.160;2023-03-24T12:09:00;3.42;;;1.95;;
26530;SDS011;14201;43.188;24.160;2023-03-24T12:14:17;3.45;;;1.95;;
26530;SDS011;14201;43.188;24.160;2023-03-24T12:17:20;2.83;;;2.10;;
26530;SDS011;14201;43.188;24.160;2023-03-24T12:20:10;2.85;;;2.05;;
26530;SDS011;14201;43.188;24.160;2023-03-24T12:23:45;2.45;;;2.05;;
26530;SDS011;14201;43.188;24.160;2023-03-24T12:25:44;3.17;;;2.35;;
26530;SDS011;14201;43.188;24.160;2023-03-24T12:36:45;3.20;;;2.25;;
26530;SDS011;14201;43.188;24.160;2023-03-24T12:39:28;2.58;;;2.22;;
26530;SDS011;14201;43.188;24.160;2023-03-24T12:42:02;3.17;;;2.17;;
26530;SDS011;14201;43.188;24.160;2023-03-24T12:44:40;2.58;;;2.38;;
26530;SDS011;14201;43.188;24.160;2023-03-24T12:47:31;3.55;;;2.45;;
26530;SDS011;14201;43.188;24.160;2023-03-24T12:55:49;4.00;;;2.83;;
26530;SDS011;14201;43.188;24.160;2023-03-24T13:00:50;3.38;;;2.65;;
26530;SDS011;14201;43.188;24.160;2023-03-24T13:09:20;3.90;;;2.70;;
26530;SDS011;14201;43.188;24.160;2023-03-24T13:11:57;3.63;;;2.50;;
26530;SDS011;14201;43.188;24.160;2023-03-24T13:14:33;3.15;;;2.50;;
26530;SDS011;14201;43.188;24.160;2023-03-24T13:17:13;4.30;;;2.70;;
26530;SDS011;14201;43.188;24.160;2023-03-24T13:19:47;3.33;;;2.65;;
26530;SDS011;14201;43.188;24.160;2023-03-24T13:22:16;5.13;;;2.55;;
26530;SDS011;14201;43.188;24.160;2023-03-24T13:24:44;3.80;;;2.33;;
26530;SDS011;14201;43.188;24.160;2023-03-24T13:27:16;3.83;;;3.00;;
26530;SDS011;14201;43.188;24.160;2023-03-24T13:37:32;3.75;;;2.58;;
26530;SDS011;14201;43.188;24.160;2023-03-24T13:40:05;4.00;;;2.30;;
26530;SDS011;14201;43.188;24.160;2023-03-24T13:42:36;5.20;;;2.60;;
26530;SDS011;14201;43.188;24.160;2023-03-24T13:45:20;3.55;;;2.45;;
26530;SDS011;14201;43.188;24.160;2023-03-24T13:50:40;4.80;;;2.70;;
26530;SDS011;14201;43.188;24.160;2023-03-24T13:53:18;3.17;;;2.42;;
26530;SDS011;14201;43.188;24.160;2023-03-24T13:55:57;2.75;;;2.30;;
26530;SDS011;14201;43.188;24.160;2023-03-24T13:58:25;5.15;;;2.28;;
26530;SDS011;14201;43.188;24.160;2023-03-24T14:03:34;4.20;;;2.05;;
26530;SDS011;14201;43.188;24.160;2023-03-24T14:06:03;2.95;;;2.17;;
26530;SDS011;14201;43.188;24.160;2023-03-24T14:08:41;5.22;;;1.95;;
26530;SDS011;14201;43.188;24.160;2023-03-24T14:14:21;5.85;;;2.38;;
26530;SDS011;14201;43.188;24.160;2023-03-24T14:16:49;2.90;;;2.08;;
26530;SDS011;14201;43.188;24.160;2023-03-24T14:22:31;3.63;;;2.15;;
26530;SDS011;14201;43.188;24.160;2023-03-24T14:24:36;3.90;;;2.20;;
26530;SDS011;14201;43.188;24.160;2023-03-24T14:27:25;2.60;;;2.13;;
26530;SDS011;14201;43.188;24.160;2023-03-24T14:29:59;2.97;;;2.10;;
26530;SDS011;14201;43.188;24.160;2023-03-24T14:32:53;2.95;;;2.25;;
26530;SDS011;14201;43.188;24.160;2023-03-24T14:35:25;3.67;;;2.25;;
26530;SDS011;14201;43.188;24.160;2023-03-24T14:37:58;20.55;;;3.15;;
26530;SDS011;14201;43.188;24.160;2023-03-24T14:40:38;3.42;;;2.72;;
26530;SDS011;14201;43.188;24.160;2023-03-24T14:45:55;3.97;;;2.53;;
26530;SDS011;14201;43.188;24.160;2023-03-24T14:53:56;3.15;;;2.40;;
26530;SDS011;14201;43.188;24.160;2023-03-24T14:56:23;4.45;;;2.50;;
26530;SDS011;14201;43.188;24.160;2023-03-24T14:58:53;3.05;;;1.90;;
26530;SDS011;14201;43.188;24.160;2023-03-24T15:01:21;4.28;;;2.30;;
26530;SDS011;14201;43.188;24.160;2023-03-24T15:06:29;3.33;;;2.40;;
26530;SDS011;14201;43.188;24.160;2023-03-24T15:08:56;5.68;;;2.22;;
26530;SDS011;14201;43.188;24.160;2023-03-24T15:11:29;4.43;;;2.80;;
26530;SDS011;14201;43.188;24.160;2023-03-24T15:13:58;3.60;;;2.40;;
26530;SDS011;14201;43.188;24.160;2023-03-24T15:16:35;4.93;;;2.42;;
26530;SDS011;14201;43.188;24.160;2023-03-24T15:19:07;3.22;;;2.40;;
26530;SDS011;14201;43.188;24.160;2023-03-24T15:21:46;4.78;;;2.58;;
26530;SDS011;14201;43.188;24.160;2023-03-24T15:26:45;6.30;;;3.65;;
26530;SDS011;14201;43.188;24.160;2023-03-24T15:29:11;5.82;;;2.67;;
26530;SDS011;14201;43.188;24.160;2023-03-24T15:31:37;5.38;;;2.80;;
26530;SDS011;14201;43.188;24.160;2023-03-24T15:43:16;10.18;;;3.97;;
26530;SDS011;14201;43.188;24.160;2023-03-24T15:45:44;6.28;;;4.03;;
26530;SDS011;14201;43.188;24.160;2023-03-24T15:48:18;11.15;;;4.35;;
26530;SDS011;14201;43.188;24.160;2023-03-24T15:50:54;9.20;;;4.60;;
26530;SDS011;14201;43.188;24.160;2023-03-24T15:53:40;11.35;;;4.40;;
26530;SDS011;14201;43.188;24.160;2023-03-24T16:01:34;11.90;;;5.75;;
26530;SDS011;14201;43.188;24.160;2023-03-24T16:04:05;13.90;;;5.82;;
26530;SDS011;14201;43.188;24.160;2023-03-24T16:06:35;12.68;;;5.78;;
26530;SDS011;14201;43.188;24.160;2023-03-24T16:09:04;14.50;;;5.95;;
26530;SDS011;14201;43.188;24.160;2023-03-24T16:11:34;13.10;;;5.47;;
26530;SDS011;14201;43.188;24.160;2023-03-24T16:14:00;8.93;;;5.43;;
26530;SDS011;14201;43.188;24.160;2023-03-24T16:16:38;12.55;;;6.28;;
26530;SDS011;14201;43.188;24.160;2023-03-24T16:19:08;9.18;;;5.57;;
26530;SDS011;14201;43.188;24.160;2023-03-24T16:21:33;8.60;;;4.50;;
26530;SDS011;14201;43.188;24.160;2023-03-24T16:23:59;12.93;;;4.20;;
26530;SDS011;14201;43.188;24.160;2023-03-24T16:26:26;8.25;;;4.28;;
26530;SDS011;14201;43.188;24.160;2023-03-24T16:29:02;5.82;;;3.78;;
26530;SDS011;14201;43.188;24.160;2023-03-24T16:31:36;6.78;;;4.00;;
26530;SDS011;14201;43.188;24.160;2023-03-24T16:34:01;6.75;;;3.65;;
26530;SDS011;14201;43.188;24.160;2023-03-24T16:36:27;9.90;;;4.03;;
26530;SDS011;14201;43.188;24.160;2023-03-24T16:38:53;11.30;;;4.70;;
26530;SDS011;14201;43.188;24.160;2023-03-24T16:41:20;11.23;;;5.03;;
26530;SDS011;14201;43.188;24.160;2023-03-24T16:43:47;9.18;;;5.63;;
26530;SDS011;14201;43.188;24.160;2023-03-24T16:48:50;8.77;;;5.45;;
26530;SDS011;14201;43.188;24.160;2023-03-24T16:51:16;11.73;;;4.97;;
26530;SDS011;14201;43.188;24.160;2023-03-24T16:53:43;8.23;;;5.05;;
26530;SDS011;14201;43.188;24.160;2023-03-24T17:08:30;6.03;;;4.30;;
26530;SDS011;14201;43.188;24.160;2023-03-24T17:10:55;11.93;;;4.95;;
26530;SDS011;14201;43.188;24.160;2023-03-24T17:13:22;10.77;;;5.50;;
26530;SDS011;14201;43.188;24.160;2023-03-24T17:15:49;10.55;;;4.38;;
26530;SDS011;14201;43.188;24.160;2023-03-24T17:18:16;10.25;;;5.20;;
26530;SDS011;14201;43.188;24.160;2023-03-24T17:20:42;8.30;;;4.78;;
26530;SDS011;14201;43.188;24.160;2023-03-24T17:23:09;12.43;;;5.38;;
26530;SDS011;14201;43.188;24.160;2023-03-24T17:25:37;11.70;;;5.47;;
26530;SDS011;14201;43.188;24.160;2023-03-24T17:28:05;17.55;;;5.55;;
26530;SDS011;14201;43.188;24.160;2023-03-24T17:30:36;11.52;;;4.97;;
26530;SDS011;14201;43.188;24.160;2023-03-24T17:33:02;6.95;;;4.47;;
26530;SDS011;14201;43.188;24.160;2023-03-24T17:35:28;18.83;;;5.30;;
26530;SDS011;14201;43.188;24.160;2023-03-24T17:37:53;8.52;;;5.35;;
26530;SDS011;14201;43.188;24.160;2023-03-24T17:40:19;12.10;;;5.43;;
26530;SDS011;14201;43.188;24.160;2023-03-24T17:42:45;7.38;;;4.95;;
26530;SDS011;14201;43.188;24.160;2023-03-24T17:45:13;9.93;;;5.57;;
26530;SDS011;14201;43.188;24.160;2023-03-24T17:47:41;7.50;;;4.93;;
26530;SDS011;14201;43.188;24.160;2023-03-24T17:50:07;12.48;;;5.50;;
26530;SDS011;14201;43.188;24.160;2023-03-24T17:52:43;15.32;;;6.60;;
26530;SDS011;14201;43.188;24.160;2023-03-24T17:55:11;11.07;;;6.00;;
26530;SDS011;14201;43.188;24.160;2023-03-24T17:57:37;8.77;;;5.80;;
26530;SDS011;14201;43.188;24.160;2023-03-24T18:00:03;11.93;;;6.88;;
26530;SDS011;14201;43.188;24.160;2023-03-24T18:02:38;11.60;;;7.30;;
26530;SDS011;14201;43.188;24.160;2023-03-24T18:05:05;13.70;;;7.38;;
26530;SDS011;14201;43.188;24.160;2023-03-24T18:07:31;11.70;;;6.63;;
26530;SDS011;14201;43.188;24.160;2023-03-24T18:09:58;10.73;;;6.65;;
26530;SDS011;14201;43.188;24.160;2023-03-24T18:12:23;7.85;;;5.47;;
26530;SDS011;14201;43.188;24.160;2023-03-24T18:14:50;9.98;;;6.35;;
26530;SDS011;14201;43.188;24.160;2023-03-24T18:17:15;10.13;;;6.70;;
26530;SDS011;14201;43.188;24.160;2023-03-24T18:19:42;9.40;;;6.47;;
26530;SDS011;14201;43.188;24.160;2023-03-24T18:22:08;8.60;;;6.57;;
26530;SDS011;14201;43.188;24.160;2023-03-24T18:24:33;9.45;;;5.97;;
26530;SDS011;14201;43.188;24.160;2023-03-24T18:27:00;9.00;;;6.22;;
26530;SDS011;14201;43.188;24.160;2023-03-24T18:29:27;9.70;;;6.32;;
26530;SDS011;14201;43.188;24.160;2023-03-24T18:31:52;9.70;;;6.43;;
26530;SDS011;14201;43.188;24.160;2023-03-24T18:34:18;10.50;;;6.50;;
26530;SDS011;14201;43.188;24.160;2023-03-24T18:36:46;10.55;;;5.68;;
26530;SDS011;14201;43.188;24.160;2023-03-24T18:39:12;7.43;;;5.30;;
26530;SDS011;14201;43.188;24.160;2023-03-24T18:41:37;12.73;;;6.60;;
26530;SDS011;14201;43.188;24.160;2023-03-24T18:44:04;10.43;;;6.60;;
26530;SDS011;14201;43.188;24.160;2023-03-24T18:46:35;9.82;;;7.10;;
26530;SDS011;14201;43.188;24.160;2023-03-24T18:49:00;9.38;;;6.20;;
26530;SDS011;14201;43.188;24.160;2023-03-24T18:51:26;12.68;;;6.40;;
26530;SDS011;14201;43.188;24.160;2023-03-24T18:53:52;11.60;;;5.68;;
26530;SDS011;14201;43.188;24.160;2023-03-24T18:56:18;9.90;;;5.85;;
26530;SDS011;14201;43.188;24.160;2023-03-24T18:58:46;15.38;;;7.07;;
26530;SDS011;14201;43.188;24.160;2023-03-24T19:01:13;8.95;;;6.63;;
26530;SDS011;14201;43.188;24.160;2023-03-24T19:03:42;9.80;;;6.90;;
26530;SDS011;14201;43.188;24.160;2023-03-24T19:06:10;12.52;;;6.68;;
26530;SDS011;14201;43.188;24.160;2023-03-24T19:08:38;16.17;;;8.75;;
26530;SDS011;14201;43.188;24.160;2023-03-24T19:11:07;14.50;;;8.18;;
26530;SDS011;14201;43.188;24.160;2023-03-24T19:13:33;12.68;;;9.80;;
26530;SDS011;14201;43.188;24.160;2023-03-24T19:15:59;15.80;;;9.55;;
26530;SDS011;14201;43.188;24.160;2023-03-24T19:18:25;17.02;;;9.48;;
26530;SDS011;14201;43.188;24.160;2023-03-24T19:20:54;12.95;;;7.95;;
26530;SDS011;14201;43.188;24.160;2023-03-24T19:23:24;13.27;;;7.38;;
26530;SDS011;14201;43.188;24.160;2023-03-24T19:25:51;13.32;;;7.35;;
26530;SDS011;14201;43.188;24.160;2023-03-24T19:28:24;10.10;;;7.77;;
26530;SDS011;14201;43.188;24.160;2023-03-24T19:30:53;11.18;;;7.50;;
26530;SDS011;14201;43.188;24.160;2023-03-24T19:33:19;11.40;;;8.18;;
26530;SDS011;14201;43.188;24.160;2023-03-24T19:35:48;15.25;;;8.70;;
26530;SDS011;14201;43.188;24.160;2023-03-24T19:38:14;12.20;;;7.38;;
26530;SDS011;14201;43.188;24.160;2023-03-24T19:40:42;21.15;;;12.75;;
26530;SDS011;14201;43.188;24.160;2023-03-24T19:43:09;14.10;;;9.68;;
26530;SDS011;14201;43.188;24.160;2023-03-24T19:45:35;14.93;;;9.45;;
26530;SDS011;14201;43.188;24.160;2023-03-24T19:48:00;16.88;;;9.70;;
26530;SDS011;14201;43.188;24.160;2023-03-24T19:50:26;13.10;;;9.75;;
26530;SDS011;14201;43.188;24.160;2023-03-24T19:52:52;15.07;;;10.05;;
26530;SDS011;14201;43.188;24.160;2023-03-24T19:55:18;14.95;;;8.70;;
26530;SDS011;14201;43.188;24.160;2023-03-24T19:57:44;15.18;;;8.57;;
26530;SDS011;14201;43.188;24.160;2023-03-24T20:00:10;20.10;;;10.30;;
26530;SDS011;14201;43.188;24.160;2023-03-24T20:02:39;16.48;;;9.77;;
26530;SDS011;14201;43.188;24.160;2023-03-24T20:05:05;15.00;;;10.30;;
26530;SDS011;14201;43.188;24.160;2023-03-24T20:07:32;12.85;;;9.60;;
26530;SDS011;14201;43.188;24.160;2023-03-24T20:09:59;13.55;;;9.15;;
26530;SDS011;14201;43.188;24.160;2023-03-24T20:12:25;15.35;;;9.68;;
26530;SDS011;14201;43.188;24.160;2023-03-24T20:14:54;14.48;;;9.68;;
26530;SDS011;14201;43.188;24.160;2023-03-24T20:17:21;12.88;;;9.63;;
26530;SDS011;14201;43.188;24.160;2023-03-24T20:19:48;16.42;;;10.55;;
26530;SDS011;14201;43.188;24.160;2023-03-24T20:22:14;18.00;;;11.10;;
26530;SDS011;14201;43.188;24.160;2023-03-24T20:24:40;18.67;;;10.75;;
26530;SDS011;14201;43.188;24.160;2023-03-24T20:27:08;18.15;;;10.27;;
26530;SDS011;14201;43.188;24.160;2023-03-24T20:29:34;15.75;;;10.13;;
26530;SDS011;14201;43.188;24.160;2023-03-24T20:32:00;16.42;;;11.30;;
26530;SDS011;14201;43.188;24.160;2023-03-24T20:34:26;16.48;;;11.10;;
26530;SDS011;14201;43.188;24.160;2023-03-24T20:36:52;16.63;;;11.18;;
26530;SDS011;14201;43.188;24.160;2023-03-24T20:39:17;16.55;;;10.02;;
26530;SDS011;14201;43.188;24.160;2023-03-24T20:41:43;18.20;;;11.93;;
26530;SDS011;14201;43.188;24.160;2023-03-24T20:44:08;20.65;;;12.13;;
26530;SDS011;14201;43.188;24.160;2023-03-24T20:46:34;23.20;;;15.45;;
26530;SDS011;14201;43.188;24.160;2023-03-24T20:48:59;20.10;;;12.13;;
26530;SDS011;14201;43.188;24.160;2023-03-24T20:51:26;18.88;;;12.13;;
26530;SDS011;14201;43.188;24.160;2023-03-24T20:53:53;17.98;;;11.95;;
26530;SDS011;14201;43.188;24.160;2023-03-24T20:56:19;21.30;;;13.15;;
26530;SDS011;14201;43.188;24.160;2023-03-24T20:58:45;18.00;;;12.57;;
26530;SDS011;14201;43.188;24.160;2023-03-24T21:01:13;18.02;;;12.60;;
26530;SDS011;14201;43.188;24.160;2023-03-24T21:03:47;23.52;;;11.65;;
26530;SDS011;14201;43.188;24.160;2023-03-24T21:06:17;16.40;;;12.23;;
26530;SDS011;14201;43.188;24.160;2023-03-24T21:08:44;19.65;;;12.35;;
26530;SDS011;14201;43.188;24.160;2023-03-24T21:11:10;14.57;;;9.18;;
26530;SDS011;14201;43.188;24.160;2023-03-24T21:13:36;14.75;;;10.40;;
26530;SDS011;14201;43.188;24.160;2023-03-24T21:16:08;12.90;;;9.10;;
26530;SDS011;14201;43.188;24.160;2023-03-24T21:18:36;14.05;;;9.75;;
26530;SDS011;14201;43.188;24.160;2023-03-24T21:21:01;17.08;;;10.75;;
26530;SDS011;14201;43.188;24.160;2023-03-24T21:23:31;14.30;;;9.88;;
26530;SDS011;14201;43.188;24.160;2023-03-24T21:26:01;18.65;;;11.30;;
26530;SDS011;14201;43.188;24.160;2023-03-24T21:30:55;20.15;;;11.23;;
26530;SDS011;14201;43.188;24.160;2023-03-24T21:33:30;17.08;;;10.73;;
26530;SDS011;14201;43.188;24.160;2023-03-24T21:35:56;18.33;;;11.27;;
26530;SDS011;14201;43.188;24.160;2023-03-24T21:38:23;15.77;;;10.40;;
26530;SDS011;14201;43.188;24.160;2023-03-24T21:40:58;15.73;;;10.82;;
26530;SDS011;14201;43.188;24.160;2023-03-24T21:43:24;17.95;;;10.75;;
26530;SDS011;14201;43.188;24.160;2023-03-24T21:45:57;14.02;;;10.43;;
26530;SDS011;14201;43.188;24.160;2023-03-24T21:48:23;14.38;;;9.50;;
26530;SDS011;14201;43.188;24.160;2023-03-24T21:50:54;12.27;;;8.57;;
26530;SDS011;14201;43.188;24.160;2023-03-24T21:53:22;12.90;;;9.25;;
26530;SDS011;14201;43.188;24.160;2023-03-24T21:55:54;17.77;;;9.52;;
26530;SDS011;14201;43.188;24.160;2023-03-24T21:58:28;15.25;;;9.90;;
26530;SDS011;14201;43.188;24.160;2023-03-24T22:00:58;13.82;;;9.00;;
26530;SDS011;14201;43.188;24.160;2023-03-24T22:03:24;13.93;;;9.20;;
26530;SDS011;14201;43.188;24.160;2023-03-24T22:05:51;13.50;;;8.90;;
26530;SDS011;14201;43.188;24.160;2023-03-24T22:08:20;18.88;;;10.38;;
26530;SDS011;14201;43.188;24.160;2023-03-24T22:10:57;14.90;;;9.48;;
26530;SDS011;14201;43.188;24.160;2023-03-24T22:13:24;11.85;;;8.52;;
26530;SDS011;14201;43.188;24.160;2023-03-24T22:15:51;11.73;;;8.45;;
26530;SDS011;14201;43.188;24.160;2023-03-24T22:18:19;14.10;;;8.90;;
26530;SDS011;14201;43.188;24.160;2023-03-24T22:20:55;15.40;;;8.75;;
26530;SDS011;14201;43.188;24.160;2023-03-24T22:23:29;12.70;;;8.23;;
26530;SDS011;14201;43.188;24.160;2023-03-24T22:26:00;11.98;;;8.63;;
26530;SDS011;14201;43.188;24.160;2023-03-24T22:28:34;12.95;;;8.43;;
26530;SDS011;14201;43.188;24.160;2023-03-24T22:31:01;14.43;;;8.57;;
26530;SDS011;14201;43.188;24.160;2023-03-24T22:33:29;10.02;;;7.65;;
26530;SDS011;14201;43.188;24.160;2023-03-24T22:35:55;13.02;;;8.23;;
26530;SDS011;14201;43.188;24.160;2023-03-24T22:38:22;14.27;;;8.90;;
26530;SDS011;14201;43.188;24.160;2023-03-24T22:40:48;15.25;;;8.32;;
26530;SDS011;14201;43.188;24.160;2023-03-24T22:43:14;15.15;;;8.75;;
26530;SDS011;14201;43.188;24.160;2023-03-24T22:45:40;11.15;;;8.63;;
26530;SDS011;14201;43.188;24.160;2023-03-24T22:48:07;13.85;;;8.60;;
26530;SDS011;14201;43.188;24.160;2023-03-24T22:50:33;12.88;;;8.80;;
26530;SDS011;14201;43.188;24.160;2023-03-24T22:52:59;14.48;;;8.57;;
26530;SDS011;14201;43.188;24.160;2023-03-24T22:55:25;13.32;;;8.57;;
26530;SDS011;14201;43.188;24.160;2023-03-24T22:57:51;15.07;;;8.73;;
26530;SDS011;14201;43.188;24.160;2023-03-24T23:00:17;11.93;;;8.55;;
26530;SDS011;14201;43.188;24.160;2023-03-24T23:02:44;11.38;;;7.65;;
26530;SDS011;14201;43.188;24.160;2023-03-24T23:05:10;12.40;;;7.90;;
26530;SDS011;14201;43.188;24.160;2023-03-24T23:07:39;11.05;;;7.25;;
26530;SDS011;14201;43.188;24.160;2023-03-24T23:10:06;10.55;;;7.50;;
26530;SDS011;14201;43.188;24.160;2023-03-24T23:12:32;11.50;;;7.97;;
26530;SDS011;14201;43.188;24.160;2023-03-24T23:14:58;12.20;;;7.07;;
26530;SDS011;14201;43.188;24.160;2023-03-24T23:17:25;11.57;;;7.32;;
26530;SDS011;14201;43.188;24.160;2023-03-24T23:19:51;11.18;;;7.55;;
26530;SDS011;14201;43.188;24.160;2023-03-24T23:22:17;10.38;;;7.53;;
26530;SDS011;14201;43.188;24.160;2023-03-24T23:24:45;13.43;;;7.63;;
26530;SDS011;14201;43.188;24.160;2023-03-24T23:27:15;14.50;;;7.90;;
26530;SDS011;14201;43.188;24.160;2023-03-24T23:29:40;13.70;;;7.25;;
26530;SDS011;14201;43.188;24.160;2023-03-24T23:32:06;10.50;;;7.32;;
26530;SDS011;14201;43.188;24.160;2023-03-24T23:34:32;11.05;;;7.85;;
26530;SDS011;14201;43.188;24.160;2023-03-24T23:36:59;10.38;;;7.30;;
26530;SDS011;14201;43.188;24.160;2023-03-24T23:39:29;13.23;;;8.30;;
26530;SDS011;14201;43.188;24.160;2023-03-24T23:41:58;10.68;;;7.70;;
26530;SDS011;14201;43.188;24.160;2023-03-24T23:44:24;12.52;;;7.30;;
26530;SDS011;14201;43.188;24.160;2023-03-24T23:46:49;12.30;;;8.32;;
26530;SDS011;14201;43.188;24.160;2023-03-24T23:49:15;13.30;;;8.02;;
26530;SDS011;14201;43.188;24.160;2023-03-24T23:51:41;11.27;;;8.18;;
26530;SDS011;14201;43.188;24.160;2023-03-24T23:54:07;11.13;;;7.50;;
26530;SDS011;14201;43.188;24.160;2023-03-24T23:56:33;13.13;;;7.13;;
26530;SDS011;14201;43.188;24.160;2023-03-24T23:59:03;12.27;;;8.18;;
